Time;durP1;ratioP1;P1;durP2;ratioP2;P2;SDS_P1;SDS_P2;PMS_P1;PMS_P2;Temp;Humidity;BMP_temperature;BMP_pressure;BME280_temperature;BME280_humidity;BME280_pressure;Samples;Min_cycle;Max_cycle;Signal;HPM_P1;HPM_P2
2023/07/26 00:01:16;;;;;;;10.57;5.90;;;14.40;99.90;;;;;;5046530;28;20447;-71
2023/07/26 00:04:02;;;;;;;8.73;5.67;;;14.40;99.90;;;;;;5046483;28;20440;-71
2023/07/26 00:06:49;;;;;;;9.80;6.50;;;14.40;99.90;;;;;;5044202;28;20447;-71
2023/07/26 00:09:35;;;;;;;10.53;6.40;;;14.30;99.90;;;;;;5042058;28;20534;-71
2023/07/26 00:12:20;;;;;;;8.33;5.80;;;14.30;99.90;;;;;;5043754;28;20421;-71
2023/07/26 00:15:07;;;;;;;9.53;6.17;;;14.30;99.90;;;;;;5043724;28;20471;-71
2023/07/26 00:17:52;;;;;;;9.93;7.93;;;14.20;99.90;;;;;;5047473;28;20412;-71
2023/07/26 00:20:37;;;;;;;8.90;7.30;;;14.20;99.90;;;;;;5045590;28;20439;-72
2023/07/26 00:23:25;;;;;;;9.97;7.20;;;14.10;99.90;;;;;;5043574;28;20774;-71
2023/07/26 00:26:11;;;;;;;10.80;6.10;;;14.10;99.90;;;;;;5042107;28;20435;-71
2023/07/26 00:28:56;;;;;;;7.10;5.77;;;14.00;99.90;;;;;;5049138;28;20425;-71
2023/07/26 00:31:42;;;;;;;6.83;6.10;;;14.00;99.90;;;;;;5047696;28;20596;-71
2023/07/26 00:34:28;;;;;;;10.50;7.00;;;13.90;99.90;;;;;;5047490;28;20537;-71
2023/07/26 00:37:13;;;;;;;8.70;6.80;;;13.80;99.90;;;;;;5048540;28;20430;-71
2023/07/26 00:40:00;;;;;;;20.90;7.20;;;13.70;99.90;;;;;;5042110;28;20466;-71
2023/07/26 00:42:46;;;;;;;13.73;7.00;;;13.80;99.90;;;;;;5041766;28;20437;-71
2023/07/26 00:45:31;;;;;;;7.73;6.97;;;13.80;99.90;;;;;;5035414;28;20588;-72
2023/07/26 00:48:17;;;;;;;11.27;5.87;;;13.80;99.90;;;;;;5032466;28;20942;-72
2023/07/26 00:51:03;;;;;;;10.00;7.67;;;13.90;99.90;;;;;;5034443;28;20448;-71
2023/07/26 00:53:48;;;;;;;8.97;6.93;;;13.90;99.90;;;;;;5030577;28;20493;-71
2023/07/26 00:56:35;;;;;;;13.43;6.80;;;14.00;99.90;;;;;;5029674;28;20448;-71
2023/07/26 00:59:21;;;;;;;15.07;8.83;;;14.10;99.90;;;;;;5031421;28;20452;-72
2023/07/26 01:02:07;;;;;;;10.97;6.90;;;14.20;99.90;;;;;;5030467;28;20447;-71
2023/07/26 01:04:53;;;;;;;9.43;6.87;;;14.30;99.90;;;;;;5029821;28;20515;-71
2023/07/26 01:07:46;;;;;;;9.57;7.10;;;14.30;99.90;;;;;;5031422;28;20447;-71
2023/07/26 01:10:38;;;;;;;8.30;5.90;;;14.20;99.90;;;;;;5035546;28;20445;-71
2023/07/26 01:13:33;;;;;;;9.07;6.90;;;14.10;99.90;;;;;;5035552;28;20575;-71
2023/07/26 01:16:19;;;;;;;9.90;7.37;;;14.20;99.90;;;;;;5035171;28;20435;-71
2023/07/26 01:19:04;;;;;;;13.73;6.97;;;14.10;99.90;;;;;;5034063;28;20454;-71
2023/07/26 01:21:51;;;;;;;10.07;7.40;;;14.10;99.90;;;;;;5032893;28;20468;-72
2023/07/26 01:24:37;;;;;;;8.60;6.97;;;14.30;99.90;;;;;;5033297;28;20458;-72
2023/07/26 01:27:22;;;;;;;9.33;7.10;;;14.30;99.90;;;;;;5033445;28;20492;-71
2023/07/26 01:30:08;;;;;;;9.73;6.00;;;14.40;99.90;;;;;;5035054;28;21014;-71
2023/07/26 01:32:55;;;;;;;18.70;6.77;;;14.40;99.90;;;;;;5043754;28;20423;-71
2023/07/26 01:35:41;;;;;;;7.57;6.83;;;14.50;99.90;;;;;;5035037;28;20487;-72
2023/07/26 01:38:29;;;;;;;7.53;6.10;;;14.50;99.90;;;;;;5035428;28;20817;-71
2023/07/26 01:41:15;;;;;;;13.23;6.03;;;14.50;99.90;;;;;;5033685;28;20475;-71
2023/07/26 01:44:01;;;;;;;12.47;8.13;;;14.60;99.90;;;;;;5034542;28;20557;-72
2023/07/26 01:46:46;;;;;;;13.63;6.90;;;14.60;99.90;;;;;;5033819;28;21511;-71
2023/07/26 01:49:32;;;;;;;9.03;7.07;;;14.50;99.90;;;;;;5035126;28;20418;-71
2023/07/26 01:52:17;;;;;;;9.70;6.03;;;14.50;99.90;;;;;;5034976;28;20451;-71
2023/07/26 01:55:05;;;;;;;7.77;6.63;;;14.50;99.90;;;;;;5030991;28;20478;-71
2023/07/26 01:57:51;;;;;;;11.77;6.87;;;14.40;99.90;;;;;;5030693;28;20447;-71
2023/07/26 02:00:36;;;;;;;8.60;7.20;;;14.40;99.90;;;;;;5032272;28;20471;-71
2023/07/26 02:03:22;;;;;;;9.03;7.00;;;14.30;99.90;;;;;;5034154;28;20423;-72
2023/07/26 02:06:08;;;;;;;7.57;6.80;;;14.20;99.90;;;;;;5034817;28;20537;-71
2023/07/26 02:08:54;;;;;;;10.77;8.03;;;14.20;99.90;;;;;;5037995;28;21084;-72
2023/07/26 02:11:40;;;;;;;11.10;8.10;;;14.20;99.90;;;;;;5033345;28;20487;-72
2023/07/26 02:14:26;;;;;;;11.63;8.00;;;14.10;99.90;;;;;;5035802;28;20446;-71
2023/07/26 02:17:12;;;;;;;9.93;7.97;;;14.20;99.90;;;;;;5037867;28;20502;-72
2023/07/26 02:19:57;;;;;;;10.50;8.00;;;14.20;99.90;;;;;;5033872;28;20569;-71
2023/07/26 02:22:43;;;;;;;15.97;8.37;;;14.20;99.90;;;;;;5036293;28;20574;-71
2023/07/26 02:25:28;;;;;;;10.00;7.60;;;14.20;99.90;;;;;;5035173;28;20560;-71
2023/07/26 02:28:15;;;;;;;9.53;7.17;;;14.20;99.90;;;;;;5036197;28;20448;-71
2023/07/26 02:31:01;;;;;;;9.93;8.60;;;14.30;99.90;;;;;;5033843;28;20669;-71
2023/07/26 02:33:46;;;;;;;15.20;7.37;;;14.30;99.90;;;;;;5032167;28;20456;-71
2023/07/26 02:36:32;;;;;;;11.10;7.27;;;14.30;99.90;;;;;;5035359;28;20449;-71
2023/07/26 02:39:18;;;;;;;8.70;7.37;;;14.30;99.90;;;;;;5031618;28;20436;-71
2023/07/26 02:42:03;;;;;;;8.43;7.00;;;14.40;99.90;;;;;;5033832;28;20497;-71
2023/07/26 02:44:50;;;;;;;8.20;7.40;;;14.40;99.90;;;;;;5030187;28;20580;-71
2023/07/26 02:47:36;;;;;;;14.23;7.33;;;14.40;99.90;;;;;;5032548;28;20466;-71
2023/07/26 02:50:22;;;;;;;9.43;6.87;;;14.50;99.90;;;;;;5032035;28;20477;-71
2023/07/26 02:53:07;;;;;;;10.17;7.17;;;14.60;99.90;;;;;;5031754;28;20856;-72
2023/07/26 02:55:53;;;;;;;11.90;7.87;;;14.60;99.90;;;;;;5029612;28;21150;-72
2023/07/26 02:58:38;;;;;;;7.23;6.50;;;14.60;99.90;;;;;;5032644;28;20808;-71
2023/07/26 03:01:25;;;;;;;9.00;6.93;;;14.60;99.90;;;;;;5029882;28;20801;-73
2023/07/26 03:04:10;;;;;;;9.47;6.90;;;14.40;99.90;;;;;;5031647;28;20724;-72
2023/07/26 03:06:56;;;;;;;9.57;7.80;;;14.40;99.90;;;;;;5030894;28;20537;-71
2023/07/26 03:09:42;;;;;;;8.97;7.50;;;14.30;99.90;;;;;;5031073;28;20556;-71
2023/07/26 03:12:27;;;;;;;9.37;7.40;;;14.10;99.90;;;;;;5029610;28;20451;-72
2023/07/26 03:15:13;;;;;;;13.90;8.00;;;14.10;99.90;;;;;;5031534;28;20525;-72
2023/07/26 03:18:00;;;;;;;11.20;9.23;;;13.90;99.90;;;;;;5029960;28;20528;-71
2023/07/26 03:20:46;;;;;;;13.20;7.97;;;13.90;99.90;;;;;;5029455;28;20473;-71
2023/07/26 03:23:31;;;;;;;9.63;8.60;;;13.90;99.90;;;;;;5031159;28;20674;-72
2023/07/26 03:26:16;;;;;;;9.10;8.20;;;14.00;99.90;;;;;;5032125;28;21053;-72
2023/07/26 03:29:02;;;;;;;8.90;8.00;;;14.00;99.90;;;;;;5032282;28;20815;-72
2023/07/26 03:31:48;;;;;;;12.53;8.80;;;14.10;99.90;;;;;;5034895;28;20569;-72
2023/07/26 03:34:35;;;;;;;10.50;8.20;;;14.20;99.90;;;;;;5031577;28;20492;-71
2023/07/26 03:37:20;;;;;;;8.77;7.60;;;14.20;99.90;;;;;;5032013;28;20491;-72
2023/07/26 03:40:07;;;;;;;8.50;7.80;;;14.30;99.90;;;;;;5031459;28;20483;-71
2023/07/26 03:42:52;;;;;;;11.00;8.63;;;14.30;99.90;;;;;;5031619;28;20967;-72
2023/07/26 03:45:38;;;;;;;13.50;8.23;;;14.20;99.90;;;;;;5031547;28;20503;-72
2023/07/26 03:48:23;;;;;;;14.73;8.67;;;14.20;99.90;;;;;;5032107;28;20455;-71
2023/07/26 03:51:10;;;;;;;9.40;7.70;;;14.10;99.90;;;;;;5030448;28;20573;-72
2023/07/26 03:53:56;;;;;;;9.70;8.70;;;14.00;99.90;;;;;;5032703;28;20444;-72
2023/07/26 03:56:41;;;;;;;9.77;8.77;;;14.00;99.90;;;;;;5030813;28;20459;-71
2023/07/26 03:59:27;;;;;;;16.90;9.63;;;14.00;99.90;;;;;;5029622;28;20422;-72
2023/07/26 04:02:12;;;;;;;13.57;8.47;;;14.00;99.90;;;;;;5031361;28;20542;-72
2023/07/26 04:04:58;;;;;;;10.17;7.77;;;14.10;99.90;;;;;;5032258;28;20625;-70
2023/07/26 04:07:45;;;;;;;12.63;9.37;;;14.20;99.90;;;;;;5030726;28;20802;-71
2023/07/26 04:10:30;;;;;;;15.27;9.83;;;14.30;99.90;;;;;;5030738;28;20908;-71
2023/07/26 04:13:16;;;;;;;13.90;8.50;;;14.30;99.90;;;;;;5031387;28;20494;-70
2023/07/26 04:16:02;;;;;;;12.20;8.23;;;14.20;99.90;;;;;;5027890;28;20447;-72
2023/07/26 04:18:48;;;;;;;9.00;8.10;;;14.20;99.90;;;;;;5031208;28;20472;-72
2023/07/26 04:21:33;;;;;;;12.00;8.20;;;14.10;99.90;;;;;;5028207;28;20578;-72
2023/07/26 04:24:20;;;;;;;10.70;9.60;;;14.20;99.90;;;;;;5029082;28;20501;-72
2023/07/26 04:27:06;;;;;;;10.97;8.10;;;14.20;99.90;;;;;;5028451;28;20442;-73
2023/07/26 04:29:52;;;;;;;8.97;8.07;;;14.30;99.90;;;;;;5028060;28;20849;-72
2023/07/26 04:32:37;;;;;;;10.83;8.57;;;14.40;99.90;;;;;;5032838;28;20418;-72
2023/07/26 04:35:23;;;;;;;9.20;8.30;;;14.50;99.90;;;;;;5029688;28;20922;-72
2023/07/26 04:38:08;;;;;;;12.70;8.93;;;14.50;99.90;;;;;;5031142;28;20453;-72
2023/07/26 04:40:55;;;;;;;9.73;8.83;;;14.40;99.90;;;;;;5029710;28;20538;-71
2023/07/26 04:43:41;;;;;;;9.60;8.60;;;14.30;99.90;;;;;;5029162;28;20423;-69
2023/07/26 04:46:26;;;;;;;11.00;8.67;;;14.30;99.90;;;;;;5033207;28;20502;-71
2023/07/26 04:49:12;;;;;;;12.20;8.90;;;14.20;99.90;;;;;;5033677;28;20434;-71
2023/07/26 04:51:58;;;;;;;10.17;9.07;;;14.20;99.90;;;;;;5035863;28;20499;-70
2023/07/26 04:54:43;;;;;;;10.40;9.00;;;14.30;99.90;;;;;;5035251;28;20560;-71
2023/07/26 04:57:30;;;;;;;12.03;8.50;;;14.30;99.90;;;;;;5036384;28;20484;-72
2023/07/26 05:00:16;;;;;;;10.43;8.13;;;14.40;99.90;;;;;;5031476;28;21276;-71
2023/07/26 05:03:02;;;;;;;9.60;8.70;;;14.40;99.90;;;;;;5033945;28;20452;-71
2023/07/26 05:05:50;;;;;;;10.70;9.60;;;14.40;99.90;;;;;;5034132;28;20449;-73
2023/07/26 05:08:35;;;;;;;19.43;9.17;;;14.50;99.90;;;;;;5035190;28;20797;-73
2023/07/26 05:11:22;;;;;;;22.97;9.73;;;14.50;99.90;;;;;;5031706;28;20520;-71
2023/07/26 05:14:09;;;;;;;14.47;9.60;;;14.50;99.90;;;;;;5034852;28;20465;-73
2023/07/26 05:16:55;;;;;;;10.77;9.00;;;14.50;99.90;;;;;;5033738;28;20450;-73
2023/07/26 05:19:40;;;;;;;12.50;9.90;;;14.60;99.90;;;;;;5032494;28;20454;-71
2023/07/26 05:22:25;;;;;;;9.63;8.27;;;14.60;99.90;;;;;;5034448;28;20505;-70
2023/07/26 05:25:11;;;;;;;10.30;9.23;;;14.80;99.90;;;;;;5033224;28;20423;-73
2023/07/26 05:27:57;;;;;;;15.13;9.30;;;14.90;99.90;;;;;;5033384;28;20471;-72
2023/07/26 05:30:44;;;;;;;11.77;9.70;;;14.90;99.90;;;;;;5034560;28;20848;-73
2023/07/26 05:33:29;;;;;;;13.67;10.10;;;14.90;99.90;;;;;;5034267;28;20444;-72
2023/07/26 05:36:15;;;;;;;10.93;9.80;;;14.90;99.90;;;;;;5033041;28;20472;-72
2023/07/26 05:39:00;;;;;;;12.97;9.83;;;14.80;99.90;;;;;;5032597;28;20447;-72
2023/07/26 05:41:46;;;;;;;14.20;9.90;;;14.70;99.90;;;;;;5033747;28;20459;-72
2023/07/26 05:44:31;;;;;;;15.20;10.90;;;14.60;99.90;;;;;;5032896;28;20452;-71
2023/07/26 05:47:18;;;;;;;15.50;10.43;;;14.70;99.90;;;;;;5033115;28;20437;-71
2023/07/26 05:50:04;;;;;;;12.23;10.33;;;14.80;99.90;;;;;;5032045;28;21093;-72
2023/07/26 05:52:50;;;;;;;12.07;10.70;;;14.80;99.90;;;;;;5035320;28;20433;-72
2023/07/26 05:55:35;;;;;;;11.83;10.67;;;14.70;99.90;;;;;;5031920;28;20557;-72
2023/07/26 05:58:21;;;;;;;11.53;10.33;;;14.70;99.90;;;;;;5033042;28;20938;-73
2023/07/26 06:01:07;;;;;;;12.40;10.37;;;14.80;99.90;;;;;;5033854;28;21265;-73
2023/07/26 06:03:54;;;;;;;12.47;9.63;;;14.90;99.90;;;;;;5033596;28;21006;-71
2023/07/26 06:06:39;;;;;;;10.97;8.93;;;14.80;99.90;;;;;;5031740;28;20468;-72
2023/07/26 06:09:25;;;;;;;15.33;9.13;;;14.80;99.90;;;;;;5030478;28;20456;-73
2023/07/26 06:12:11;;;;;;;11.10;8.50;;;14.80;99.90;;;;;;5031765;28;20421;-71
2023/07/26 06:14:57;;;;;;;11.40;9.43;;;14.70;99.90;;;;;;5030758;28;20505;-72
2023/07/26 06:17:42;;;;;;;16.00;10.77;;;14.60;99.90;;;;;;5030374;28;20430;-72
2023/07/26 06:20:29;;;;;;;11.07;9.97;;;14.60;99.90;;;;;;5033069;28;20499;-72
2023/07/26 06:23:15;;;;;;;14.03;9.10;;;14.70;99.90;;;;;;5033598;28;20477;-73
2023/07/26 06:26:00;;;;;;;13.27;9.40;;;14.70;99.90;;;;;;5030555;28;21468;-72
2023/07/26 06:28:46;;;;;;;17.33;9.20;;;14.80;99.90;;;;;;5032400;28;20434;-72
2023/07/26 06:31:31;;;;;;;10.87;9.70;;;14.90;99.90;;;;;;5034792;28;20464;-72
2023/07/26 06:34:17;;;;;;;11.40;9.17;;;14.90;99.90;;;;;;5032765;28;20444;-70
2023/07/26 06:37:04;;;;;;;15.87;9.50;;;14.90;99.90;;;;;;5032366;28;20524;-73
2023/07/26 06:39:50;;;;;;;10.20;9.10;;;15.00;99.90;;;;;;5030354;28;20870;-72
2023/07/26 06:42:35;;;;;;;10.07;8.97;;;14.90;99.90;;;;;;5033088;28;20483;-72
2023/07/26 06:45:21;;;;;;;13.30;9.80;;;14.90;99.90;;;;;;5031667;28;20442;-72
2023/07/26 06:48:06;;;;;;;11.03;9.93;;;14.90;99.90;;;;;;5031103;28;20449;-70
2023/07/26 06:50:52;;;;;;;11.67;9.63;;;14.80;99.90;;;;;;5030722;28;20465;-71
2023/07/26 06:53:39;;;;;;;11.07;8.57;;;14.70;99.90;;;;;;5032442;28;20453;-72
2023/07/26 06:56:24;;;;;;;10.37;8.87;;;14.70;99.90;;;;;;5028941;28;20450;-73
2023/07/26 06:59:12;;;;;;;20.27;9.73;;;14.70;99.90;;;;;;5030187;28;20441;-72
2023/07/26 07:01:57;;;;;;;16.17;9.80;;;14.50;99.90;;;;;;5041060;28;20442;-71
2023/07/26 07:04:43;;;;;;;15.10;10.30;;;14.60;99.90;;;;;;5034143;28;21000;-72
2023/07/26 07:07:28;;;;;;;17.50;9.30;;;14.80;99.90;;;;;;5033034;28;20444;-73
2023/07/26 07:10:15;;;;;;;15.33;9.90;;;14.90;99.90;;;;;;5031325;28;20473;-71
2023/07/26 07:13:01;;;;;;;13.97;10.17;;;14.90;99.90;;;;;;5033945;28;20583;-73
2023/07/26 07:15:46;;;;;;;15.40;10.77;;;15.00;99.90;;;;;;5030787;28;20494;-71
2023/07/26 07:18:32;;;;;;;14.80;10.27;;;15.10;99.90;;;;;;5028810;28;20500;-73
2023/07/26 07:21:18;;;;;;;11.03;9.90;;;15.20;99.90;;;;;;5028637;28;20494;-71
2023/07/26 07:24:04;;;;;;;15.83;11.03;;;15.20;99.90;;;;;;5029418;28;20520;-71
2023/07/26 07:26:51;;;;;;;12.23;10.93;;;15.30;99.90;;;;;;5030191;28;20499;-72
2023/07/26 07:29:36;;;;;;;14.40;10.20;;;15.20;99.90;;;;;;5028855;28;20421;-71
2023/07/26 07:32:22;;;;;;;10.53;9.10;;;15.20;99.90;;;;;;5033150;28;20790;-72
2023/07/26 07:35:09;;;;;;;9.90;8.90;;;15.30;99.90;;;;;;5029834;28;20774;-72
2023/07/26 07:37:54;;;;;;;11.93;9.57;;;15.30;99.90;;;;;;5032715;28;20495;-73
2023/07/26 07:40:40;;;;;;;15.07;9.73;;;15.40;99.90;;;;;;5031033;28;20528;-71
2023/07/26 07:43:27;;;;;;;9.80;8.90;;;15.50;99.90;;;;;;5030792;28;20925;-73
2023/07/26 07:46:12;;;;;;;11.60;9.40;;;15.50;99.90;;;;;;5029432;28;20969;-70
2023/07/26 07:48:58;;;;;;;9.90;8.90;;;15.60;99.90;;;;;;5030739;28;20645;-72
2023/07/26 07:51:43;;;;;;;11.00;9.90;;;15.40;99.90;;;;;;5029570;28;20463;-72
2023/07/26 07:54:29;;;;;;;10.17;8.60;;;15.50;99.90;;;;;;5030220;28;20425;-72
2023/07/26 07:57:16;;;;;;;9.80;8.80;;;15.60;99.90;;;;;;5028131;28;20497;-72
2023/07/26 08:00:03;;;;;;;12.00;7.70;;;15.60;99.90;;;;;;5031491;28;20560;-71
2023/07/26 08:02:49;;;;;;;10.50;8.30;;;15.60;99.90;;;;;;5032191;28;20452;-71
2023/07/26 08:05:34;;;;;;;8.60;7.80;;;15.70;99.90;;;;;;5031377;28;20434;-70
2023/07/26 08:08:20;;;;;;;9.27;8.30;;;15.70;99.90;;;;;;5031070;28;20456;-72
2023/07/26 08:11:06;;;;;;;8.87;7.37;;;15.80;99.90;;;;;;5032654;28;20454;-71
2023/07/26 08:13:51;;;;;;;8.43;7.50;;;15.90;99.90;;;;;;5029706;28;21004;-73
2023/07/26 08:16:39;;;;;;;9.67;6.83;;;15.90;99.90;;;;;;5027904;28;21003;-73
2023/07/26 08:19:25;;;;;;;9.30;6.80;;;16.00;99.90;;;;;;5032160;28;20644;-72
2023/07/26 08:22:10;;;;;;;8.00;5.77;;;15.90;99.90;;;;;;5031005;28;20966;-72
2023/07/26 08:24:55;;;;;;;8.07;5.83;;;15.80;99.90;;;;;;5034220;28;20833;-72
2023/07/26 08:27:41;;;;;;;5.60;5.10;;;15.80;99.90;;;;;;5031829;28;20449;-72
2023/07/26 08:30:26;;;;;;;9.03;5.67;;;15.80;99.90;;;;;;5034398;28;20505;-71
2023/07/26 08:33:13;;;;;;;7.07;6.20;;;15.90;99.90;;;;;;5035490;28;20435;-72
2023/07/26 08:35:59;;;;;;;8.60;5.60;;;16.00;99.90;;;;;;5035595;28;20446;-72
2023/07/26 08:38:44;;;;;;;9.17;6.50;;;16.00;99.90;;;;;;5035884;28;20959;-73
2023/07/26 08:41:31;;;;;;;14.97;5.63;;;16.10;99.90;;;;;;5035445;28;20585;-72
2023/07/26 08:44:17;;;;;;;7.30;5.90;;;16.00;99.90;;;;;;5035798;28;20455;-73
2023/07/26 08:47:05;;;;;;;7.20;5.77;;;15.90;99.90;;;;;;5035019;28;20666;-73
2023/07/26 08:49:53;;;;;;;8.33;6.00;;;16.00;99.90;;;;;;5035066;28;21055;-72
2023/07/26 08:52:38;;;;;;;7.57;6.27;;;16.20;99.90;;;;;;5037032;28;20418;-74
2023/07/26 08:55:24;;;;;;;6.50;5.63;;;16.40;99.90;;;;;;5034580;28;20475;-73
2023/07/26 08:58:10;;;;;;;6.47;5.27;;;16.60;99.90;;;;;;5036265;28;20540;-72
2023/07/26 09:00:56;;;;;;;7.97;5.90;;;16.60;99.90;;;;;;5034305;28;20486;-72
2023/07/26 09:03:42;;;;;;;6.90;6.20;;;16.60;99.90;;;;;;5036301;28;20452;-72
2023/07/26 09:06:29;;;;;;;10.20;8.17;;;16.50;99.90;;;;;;5035174;28;20431;-72
2023/07/26 09:09:15;;;;;;;7.53;5.97;;;16.70;99.90;;;;;;5034748;28;20558;-73
2023/07/26 09:12:01;;;;;;;6.40;5.70;;;16.80;99.90;;;;;;5034937;28;20474;-72
2023/07/26 09:14:49;;;;;;;8.63;6.13;;;16.70;99.90;;;;;;5033870;28;20429;-71
2023/07/26 09:17:39;;;;;;;9.00;6.10;;;16.80;99.90;;;;;;5035345;28;20899;-72
2023/07/26 09:20:27;;;;;;;8.40;5.90;;;17.00;99.90;;;;;;5035239;28;21116;-73
2023/07/26 09:23:16;;;;;;;10.17;5.57;;;17.20;99.90;;;;;;5035312;28;20973;-71
2023/07/26 09:26:01;;;;;;;9.10;6.30;;;17.20;99.90;;;;;;5034366;28;20518;-73
2023/07/26 09:28:52;;;;;;;6.87;5.83;;;17.10;99.90;;;;;;5035992;28;20953;-72
2023/07/26 09:31:38;;;;;;;7.90;5.80;;;17.00;99.90;;;;;;5038898;28;20519;-72
2023/07/26 09:34:24;;;;;;;8.53;6.50;;;17.00;99.90;;;;;;5035030;28;20487;-71
2023/07/26 09:37:19;;;;;;;8.90;5.87;;;17.00;99.90;;;;;;5037194;28;20539;-72
2023/07/26 09:40:08;;;;;;;5.90;5.10;;;16.80;99.90;;;;;;5031861;28;20493;-71
2023/07/26 09:42:53;;;;;;;6.43;5.77;;;16.80;99.90;;;;;;5035514;28;20462;-72
2023/07/26 09:45:40;;;;;;;12.00;6.00;;;16.70;99.90;;;;;;5034230;28;20969;-71
2023/07/26 09:48:26;;;;;;;32.97;5.60;;;16.70;99.90;;;;;;5037905;28;20481;-73
2023/07/26 09:51:13;;;;;;;7.57;4.63;;;16.90;99.90;;;;;;5034786;28;20573;-71
2023/07/26 09:53:58;;;;;;;5.47;4.47;;;17.00;99.90;;;;;;5038175;28;20471;-70
2023/07/26 09:56:46;;;;;;;6.70;5.47;;;17.10;99.90;;;;;;5031028;28;20464;-70
2023/07/26 09:59:34;;;;;;;7.80;5.30;;;17.10;99.90;;;;;;5038412;28;20470;-70
2023/07/26 10:02:20;;;;;;;6.57;4.77;;;17.00;99.90;;;;;;5038630;28;20862;-71
2023/07/26 10:05:09;;;;;;;7.10;5.50;;;17.00;99.90;;;;;;5035516;28;20467;-70
2023/07/26 10:07:55;;;;;;;6.17;5.57;;;17.00;99.90;;;;;;5036276;28;20452;-72
2023/07/26 10:10:42;;;;;;;11.50;4.70;;;17.10;99.90;;;;;;5035475;28;20569;-71
2023/07/26 10:13:32;;;;;;;6.73;5.80;;;17.20;99.90;;;;;;5037604;28;20970;-71
2023/07/26 10:16:17;;;;;;;10.53;5.50;;;17.30;99.90;;;;;;5036336;28;21116;-72
2023/07/26 10:19:04;;;;;;;9.00;5.40;;;17.30;99.90;;;;;;5039022;28;20851;-71
2023/07/26 10:21:51;;;;;;;5.53;5.03;;;17.30;99.90;;;;;;5035933;28;20609;-71
2023/07/26 10:24:37;;;;;;;6.33;5.50;;;17.30;99.90;;;;;;5034031;28;21171;-71
2023/07/26 10:27:23;;;;;;;5.60;5.10;;;17.30;99.90;;;;;;5031098;28;20418;-72
2023/07/26 10:30:11;;;;;;;5.00;4.50;;;17.40;99.90;;;;;;5032495;28;21340;-72
2023/07/26 10:33:00;;;;;;;8.83;4.50;;;17.70;99.90;;;;;;5037585;28;21257;-71
2023/07/26 10:35:47;;;;;;;10.83;4.80;;;17.90;99.90;;;;;;5034012;28;20886;-72
2023/07/26 10:38:32;;;;;;;4.67;4.17;;;18.00;99.90;;;;;;5036459;28;20497;-71
2023/07/26 10:41:24;;;;;;;7.40;3.67;;;18.00;99.90;;;;;;5032753;28;20457;-70
2023/07/26 10:44:12;;;;;;;8.90;4.70;;;17.80;99.90;;;;;;5037129;28;20439;-73
2023/07/26 10:47:03;;;;;;;7.43;5.23;;;17.70;99.90;;;;;;5035402;28;20427;-72
2023/07/26 10:49:48;;;;;;;9.23;4.20;;;17.60;99.90;;;;;;5035114;28;20496;-72
2023/07/26 10:52:38;;;;;;;5.33;4.23;;;17.70;99.90;;;;;;5034588;28;20455;-72
2023/07/26 10:55:27;;;;;;;10.90;4.20;;;17.70;99.90;;;;;;5035077;28;20415;-71
2023/07/26 10:58:13;;;;;;;4.63;3.70;;;17.80;99.90;;;;;;5036074;28;20492;-71
2023/07/26 11:01:01;;;;;;;6.87;3.63;;;17.90;99.90;;;;;;5034119;28;20459;-71
2023/07/26 11:03:48;;;;;;;8.83;3.87;;;17.80;99.90;;;;;;5035243;28;20513;-71
2023/07/26 11:06:55;;;;;;;13.07;4.13;;;17.80;99.90;;;;;;5035316;28;20577;-70
2023/07/26 11:09:42;;;;;;;10.90;4.43;;;17.60;99.90;;;;;;5033362;28;20798;-71
2023/07/26 11:12:27;;;;;;;6.63;4.93;;;17.60;99.90;;;;;;5034837;28;20453;-70
2023/07/26 11:15:12;;;;;;;6.20;4.57;;;17.40;99.90;;;;;;5033625;28;20809;-72
2023/07/26 11:17:58;;;;;;;6.87;5.20;;;17.30;99.90;;;;;;5034566;28;20490;-71
2023/07/26 11:20:47;;;;;;;5.83;3.90;;;16.90;99.90;;;;;;5033553;28;21217;-71
2023/07/26 11:23:33;;;;;;;9.43;4.83;;;16.50;99.90;;;;;;5033077;28;20448;-71
2023/07/26 11:26:18;;;;;;;4.93;3.90;;;16.60;99.90;;;;;;5032643;28;20502;-71
2023/07/26 11:29:06;;;;;;;6.30;4.60;;;16.40;99.90;;;;;;5034314;28;20459;-71
2023/07/26 11:31:51;;;;;;;13.00;4.40;;;16.20;99.90;;;;;;5039390;28;20705;-70
2023/07/26 11:34:36;;;;;;;6.20;4.70;;;16.30;99.90;;;;;;5033568;28;20472;-73
2023/07/26 11:37:23;;;;;;;5.90;4.70;;;16.30;99.90;;;;;;5033079;28;20996;-72
2023/07/26 11:40:10;;;;;;;6.40;4.90;;;16.40;99.90;;;;;;5032385;28;20585;-71
2023/07/26 11:42:56;;;;;;;7.50;4.00;;;16.50;99.90;;;;;;5035761;28;20427;-71
2023/07/26 11:45:44;;;;;;;6.03;4.40;;;16.50;99.90;;;;;;5032733;28;20501;-70
2023/07/26 11:48:30;;;;;;;5.50;4.10;;;16.60;99.90;;;;;;5029855;28;21205;-69
2023/07/26 11:51:16;;;;;;;4.90;3.50;;;16.80;99.90;;;;;;5029994;28;20467;-71
2023/07/26 11:54:03;;;;;;;5.27;3.23;;;17.00;99.90;;;;;;5035093;28;20526;-72
2023/07/26 11:56:49;;;;;;;6.80;3.70;;;17.20;99.90;;;;;;5032772;28;20697;-72
2023/07/26 11:59:36;;;;;;;4.90;2.83;;;17.30;99.90;;;;;;5034646;28;20444;-72
2023/07/26 12:02:21;;;;;;;5.53;3.60;;;17.50;99.90;;;;;;5037561;28;20813;-71
2023/07/26 12:05:20;;;;;;;6.27;3.83;;;17.70;99.90;;;;;;5034224;28;20534;-71
2023/07/26 12:08:07;;;;;;;6.87;3.90;;;17.90;99.90;;;;;;5035019;28;21307;-71
2023/07/26 12:10:54;;;;;;;4.03;2.80;;;18.10;99.90;;;;;;5033645;28;20576;-71
2023/07/26 12:13:40;;;;;;;5.20;3.30;;;18.40;99.90;;;;;;5027490;28;20457;-73
2023/07/26 12:16:30;;;;;;;3.93;2.80;;;18.80;99.90;;;;;;5030529;28;20630;-72
2023/07/26 12:19:16;;;;;;;4.73;3.30;;;19.20;99.90;;;;;;5031529;28;20984;-72
2023/07/26 12:22:01;;;;;;;6.13;3.63;;;19.60;99.90;;;;;;5029498;28;20841;-71
2023/07/26 12:24:51;;;;;;;5.57;2.50;;;19.90;99.90;;;;;;5030971;28;20438;-71
2023/07/26 12:27:38;;;;;;;4.13;3.07;;;20.10;99.90;;;;;;5033067;28;20447;-71
2023/07/26 12:30:27;;;;;;;6.47;3.43;;;20.00;99.90;;;;;;5031300;28;20470;-71
2023/07/26 12:33:14;;;;;;;4.43;2.83;;;20.10;99.90;;;;;;5032901;28;20473;-71
2023/07/26 12:35:59;;;;;;;5.50;2.40;;;20.00;99.90;;;;;;5036027;28;20606;-71
2023/07/26 12:38:45;;;;;;;4.93;2.63;;;20.10;99.90;;;;;;5032748;28;20459;-72
2023/07/26 12:41:31;;;;;;;5.00;2.30;;;19.90;99.90;;;;;;5030598;28;20485;-72
2023/07/26 12:44:19;;;;;;;3.43;1.83;;;19.70;99.90;;;;;;5032095;28;21526;-71
2023/07/26 12:47:05;;;;;;;3.63;2.13;;;19.30;94.90;;;;;;5035949;28;20448;-71
2023/07/26 12:49:50;;;;;;;4.07;2.10;;;19.30;99.90;;;;;;5032882;28;20510;-70
2023/07/26 12:52:37;;;;;;;3.40;2.03;;;19.40;99.90;;;;;;5034069;28;20482;-72
2023/07/26 12:55:23;;;;;;;3.87;2.00;;;19.30;83.30;;;;;;5033687;28;20828;-72
2023/07/26 12:58:09;;;;;;;3.93;1.60;;;19.60;99.00;;;;;;5030850;28;20523;-72
2023/07/26 13:00:56;;;;;;;2.53;1.80;;;19.80;93.40;;;;;;5028420;28;20531;-72
2023/07/26 13:03:41;;;;;;;5.73;2.23;;;19.60;90.20;;;;;;5031992;28;20451;-73
2023/07/26 13:06:27;;;;;;;4.77;2.33;;;19.20;92.30;;;;;;5033864;28;20787;-71
2023/07/26 13:09:13;;;;;;;7.90;3.07;;;18.90;99.90;;;;;;5034942;28;22674;-72
2023/07/26 13:11:58;;;;;;;13.47;3.20;;;18.60;99.90;;;;;;5035661;28;20550;-72
2023/07/26 13:14:44;;;;;;;7.67;3.50;;;18.30;99.90;;;;;;5034695;28;20979;-73
2023/07/26 13:17:30;;;;;;;8.10;3.90;;;18.10;99.90;;;;;;5034837;28;21005;-72
2023/07/26 13:20:16;;;;;;;5.03;3.20;;;17.80;99.90;;;;;;5033981;28;20432;-72
2023/07/26 13:23:02;;;;;;;6.80;3.67;;;17.40;99.90;;;;;;5037115;28;20792;-73
2023/07/26 13:25:51;;;;;;;8.80;3.53;;;17.00;99.90;;;;;;5034554;28;20985;-72
2023/07/26 13:28:36;;;;;;;12.73;2.57;;;16.90;99.90;;;;;;5031611;28;20495;-71
2023/07/26 13:31:22;;;;;;;5.20;3.17;;;16.90;99.90;;;;;;5034120;28;20471;-71
2023/07/26 13:34:09;;;;;;;6.63;3.60;;;17.00;99.90;;;;;;5034641;28;20898;-71
2023/07/26 13:36:56;;;;;;;4.87;3.20;;;17.10;99.90;;;;;;5036108;28;20458;-71
2023/07/26 13:39:42;;;;;;;6.77;3.30;;;17.10;99.90;;;;;;5033527;28;20456;-72
2023/07/26 13:42:30;;;;;;;5.00;3.47;;;17.10;99.90;;;;;;5032366;28;20458;-72
2023/07/26 13:45:16;;;;;;;6.00;3.30;;;16.90;99.90;;;;;;5032613;28;20498;-71
2023/07/26 13:48:07;;;;;;;4.57;3.23;;;16.80;99.90;;;;;;5030329;28;20413;-71
2023/07/26 13:50:54;;;;;;;5.10;3.50;;;16.70;99.90;;;;;;5030454;28;20849;-71
2023/07/26 13:53:39;;;;;;;4.97;3.57;;;16.80;99.90;;;;;;5033737;28;22687;-70
2023/07/26 13:56:25;;;;;;;5.77;3.67;;;17.00;99.90;;;;;;5030120;28;20430;-72
2023/07/26 13:59:10;;;;;;;6.53;3.17;;;17.20;99.90;;;;;;5035488;28;20538;-71
2023/07/26 14:01:56;;;;;;;4.37;3.27;;;17.50;99.90;;;;;;5036154;28;20663;-73
2023/07/26 14:04:42;;;;;;;4.93;3.30;;;17.80;99.90;;;;;;5031951;28;20434;-74
2023/07/26 14:07:28;;;;;;;7.13;3.07;;;18.00;99.90;;;;;;5034584;28;20422;-72
2023/07/26 14:10:14;;;;;;;4.90;3.27;;;18.10;99.90;;;;;;5031719;28;20468;-73
2023/07/26 14:12:59;;;;;;;4.20;3.00;;;18.10;99.90;;;;;;5038261;28;20463;-73
2023/07/26 14:15:45;;;;;;;3.90;2.57;;;17.90;99.90;;;;;;5034181;28;20463;-71
2023/07/26 14:18:31;;;;;;;5.43;3.00;;;17.60;99.90;;;;;;5032059;28;20473;-73
2023/07/26 14:21:16;;;;;;;6.80;3.80;;;17.60;99.90;;;;;;5032551;28;20445;-72